Time;durP1;ratioP1;P1;durP2;ratioP2;P2;SDS_P1;SDS_P2;PMS_P1;PMS_P2;Temp;Humidity;BMP_temperature;BMP_pressure;BME280_temperature;BME280_humidity;BME280_pressure;Samples;Min_cycle;Max_cycle;Signal;HPM_P1;HPM_P2
2022/12/18 06:00:20;;;;;;;31.13;27.63;;;-5.80;97.20;;;;;;1707326;28;20212;-72
2022/12/18 06:01:12;;;;;;;38.08;34.00;;;-5.80;97.20;;;;;;1707783;29;20219;-72
2022/12/18 06:02:04;;;;;;;34.75;30.80;;;-5.80;97.20;;;;;;1707768;29;20202;-72
2022/12/18 06:02:55;;;;;;;35.65;30.17;;;-5.80;97.20;;;;;;1707841;29;20214;-72
2022/12/18 06:03:47;;;;;;;36.17;32.35;;;-5.80;97.20;;;;;;1707880;29;20209;-71
2022/12/18 06:04:37;;;;;;;37.72;32.00;;;-5.80;97.20;;;;;;1707768;29;20214;-71
2022/12/18 06:05:29;;;;;;;37.93;32.37;;;-5.80;97.20;;;;;;1707712;29;20205;-71
2022/12/18 06:06:22;;;;;;;37.05;32.78;;;-5.80;97.20;;;;;;1707736;29;20211;-72
2022/12/18 06:07:14;;;;;;;34.58;30.88;;;-5.90;97.20;;;;;;1707647;29;20205;-72
2022/12/18 06:08:05;;;;;;;36.97;32.92;;;-5.90;97.20;;;;;;1707671;29;20206;-72
2022/12/18 06:08:57;;;;;;;36.25;32.38;;;-5.90;97.20;;;;;;1707793;29;20684;-72
2022/12/18 06:09:48;;;;;;;36.30;32.40;;;-5.90;97.20;;;;;;1707770;29;20206;-71
2022/12/18 06:10:40;;;;;;;34.87;30.73;;;-5.90;97.20;;;;;;1707191;28;20222;-71
2022/12/18 06:11:31;;;;;;;35.10;29.60;;;-5.90;97.20;;;;;;1707699;29;20211;-72
2022/12/18 06:12:23;;;;;;;35.97;31.93;;;-5.90;97.20;;;;;;1707644;29;20202;-72
2022/12/18 06:13:13;;;;;;;32.88;29.38;;;-5.90;97.20;;;;;;1707868;29;20206;-72
2022/12/18 06:14:07;;;;;;;33.23;29.93;;;-5.90;97.20;;;;;;1707701;29;20209;-71
2022/12/18 06:14:57;;;;;;;31.95;28.55;;;-6.00;97.20;;;;;;1707765;29;20206;-72
2022/12/18 06:15:50;;;;;;;33.00;29.40;;;-6.00;97.20;;;;;;1707721;29;20199;-72
2022/12/18 06:16:41;;;;;;;33.63;29.73;;;-6.00;97.20;;;;;;1707551;29;20668;-72
2022/12/18 06:17:34;;;;;;;31.73;28.33;;;-6.00;97.20;;;;;;1707671;29;20576;-71
2022/12/18 06:18:25;;;;;;;31.85;28.45;;;-6.00;97.20;;;;;;1707666;29;20222;-71
2022/12/18 06:19:17;;;;;;;32.77;28.30;;;-6.00;97.20;;;;;;1707810;29;20210;-71
2022/12/18 06:20:09;;;;;;;31.48;28.10;;;-6.00;97.20;;;;;;1707204;29;20214;-71
2022/12/18 06:21:01;;;;;;;31.10;27.95;;;-6.00;97.20;;;;;;1707724;29;20206;-71
2022/12/18 06:21:52;;;;;;;33.13;29.70;;;-6.00;97.20;;;;;;1707748;29;20221;-72
2022/12/18 06:22:44;;;;;;;30.25;27.00;;;-6.10;97.20;;;;;;1707685;29;20209;-71
2022/12/18 06:23:35;;;;;;;29.60;26.48;;;-6.10;97.20;;;;;;1707779;28;20214;-71
2022/12/18 06:24:27;;;;;;;31.27;27.67;;;-6.00;97.20;;;;;;1707619;29;20198;-71
2022/12/18 06:25:18;;;;;;;31.55;28.27;;;-6.10;97.20;;;;;;1707665;29;20210;-72
2022/12/18 06:26:12;;;;;;;32.20;28.80;;;-6.10;97.20;;;;;;1707781;29;20212;-71
2022/12/18 06:27:03;;;;;;;32.90;29.02;;;-6.00;97.20;;;;;;1707293;29;20497;-71
2022/12/18 06:27:55;;;;;;;33.70;30.10;;;-6.00;97.20;;;;;;1707759;29;20287;-71
2022/12/18 06:28:45;;;;;;;35.45;31.10;;;-6.00;97.20;;;;;;1707360;29;20206;-71
2022/12/18 06:29:37;;;;;;;34.10;30.63;;;-6.00;97.20;;;;;;1707287;29;20195;-71
2022/12/18 06:30:28;;;;;;;34.92;30.58;;;-6.00;97.20;;;;;;1707156;29;20210;-71
2022/12/18 06:31:21;;;;;;;35.93;30.57;;;-6.00;97.20;;;;;;1707039;28;20224;-71
2022/12/18 06:32:11;;;;;;;34.97;31.27;;;-6.00;97.20;;;;;;1707425;29;20214;-71
2022/12/18 06:33:03;;;;;;;32.43;28.90;;;-6.00;97.20;;;;;;1707381;29;20199;-71
2022/12/18 06:33:54;;;;;;;34.13;30.42;;;-6.00;97.20;;;;;;1707675;29;20206;-71
2022/12/18 06:34:46;;;;;;;31.90;28.50;;;-6.00;97.20;;;;;;1707535;29;20672;-71
2022/12/18 06:35:36;;;;;;;32.83;29.23;;;-6.10;97.20;;;;;;1707640;28;20218;-71
2022/12/18 06:36:31;;;;;;;35.53;31.30;;;-6.10;97.20;;;;;;1707646;29;20194;-71
2022/12/18 06:37:24;;;;;;;32.80;29.10;;;-6.10;97.20;;;;;;1707614;29;20198;-71
2022/12/18 06:38:16;;;;;;;32.58;28.98;;;-6.10;97.20;;;;;;1707517;29;20305;-71
2022/12/18 06:39:07;;;;;;;32.20;28.92;;;-6.20;97.20;;;;;;1707335;29;20226;-71
2022/12/18 06:39:58;;;;;;;44.73;32.13;;;-6.10;97.20;;;;;;1707124;29;20214;-71
2022/12/18 06:40:49;;;;;;;34.20;30.83;;;-6.10;97.20;;;;;;1707696;28;20700;-71
2022/12/18 06:41:41;;;;;;;33.30;29.80;;;-6.10;97.20;;;;;;1707458;29;20580;-71
2022/12/18 06:42:32;;;;;;;32.67;29.27;;;-6.10;97.20;;;;;;1707652;29;20457;-71
2022/12/18 06:43:23;;;;;;;34.27;30.67;;;-6.20;97.20;;;;;;1707617;29;20211;-71
2022/12/18 06:44:14;;;;;;;32.53;29.02;;;-6.20;97.20;;;;;;1707497;29;20210;-71
2022/12/18 06:45:07;;;;;;;28.90;26.13;;;-6.20;97.20;;;;;;1707604;29;20210;-71
2022/12/18 06:45:59;;;;;;;28.27;25.38;;;-6.20;97.20;;;;;;1707659;29;20211;-71
2022/12/18 06:46:52;;;;;;;30.60;27.38;;;-6.30;97.20;;;;;;1708073;29;20214;-71
2022/12/18 06:47:43;;;;;;;30.50;26.90;;;-6.30;97.20;;;;;;1707568;29;20213;-71
2022/12/18 06:48:34;;;;;;;29.02;26.13;;;-6.30;97.20;;;;;;1707576;29;20198;-71
2022/12/18 06:49:25;;;;;;;30.45;27.25;;;-6.30;97.20;;;;;;1707422;29;20206;-71
2022/12/18 06:50:17;;;;;;;29.93;26.80;;;-6.30;97.20;;;;;;1706993;28;20209;-71
2022/12/18 06:51:08;;;;;;;31.13;27.83;;;-6.30;97.20;;;;;;1707169;29;20244;-71
2022/12/18 06:51:59;;;;;;;30.93;27.20;;;-6.30;97.20;;;;;;1707405;29;20218;-71
2022/12/18 06:52:50;;;;;;;31.50;27.83;;;-6.40;97.20;;;;;;1707495;29;20465;-71
2022/12/18 06:53:42;;;;;;;32.07;28.60;;;-6.30;97.20;;;;;;1707116;29;20225;-71
2022/12/18 06:54:32;;;;;;;35.13;29.85;;;-6.30;97.20;;;;;;1707543;29;20206;-71
2022/12/18 06:55:24;;;;;;;35.07;29.87;;;-6.40;97.20;;;;;;1705523;29;20657;-71
2022/12/18 06:56:15;;;;;;;33.53;30.02;;;-6.40;97.20;;;;;;1707550;29;20209;-71
2022/12/18 06:57:07;;;;;;;34.75;30.38;;;-6.40;97.20;;;;;;1707315;29;20237;-71
2022/12/18 06:57:58;;;;;;;31.75;28.45;;;-6.40;97.20;;;;;;1707329;29;20202;-71
2022/12/18 06:58:49;;;;;;;33.40;29.60;;;-6.40;97.20;;;;;;1707471;29;20205;-71
2022/12/18 06:59:40;;;;;;;29.75;26.75;;;-6.40;97.20;;;;;;1707433;29;20222;-71
2022/12/18 07:00:32;;;;;;;30.67;27.50;;;-6.40;97.20;;;;;;1706923;28;20222;-71
2022/12/18 07:01:22;;;;;;;31.35;28.15;;;-6.50;97.20;;;;;;1707275;29;20206;-71
2022/12/18 07:02:15;;;;;;;29.83;26.83;;;-6.50;97.20;;;;;;1707470;29;20213;-71
2022/12/18 07:03:06;;;;;;;30.38;26.98;;;-6.50;97.20;;;;;;1707456;29;20241;-71
2022/12/18 07:03:58;;;;;;;32.57;29.37;;;-6.50;97.20;;;;;;1707417;29;20214;-71
2022/12/18 07:04:49;;;;;;;32.20;28.70;;;-6.60;97.20;;;;;;1707151;29;20211;-71
2022/12/18 07:05:41;;;;;;;33.40;29.87;;;-6.60;97.20;;;;;;1707258;28;20205;-71
2022/12/18 07:06:32;;;;;;;32.05;28.75;;;-6.60;97.20;;;;;;1707463;29;20664;-71
2022/12/18 07:07:24;;;;;;;31.57;28.30;;;-6.60;97.20;;;;;;1707228;29;20820;-71
2022/12/18 07:08:14;;;;;;;30.17;27.08;;;-6.50;97.20;;;;;;1707472;28;20213;-71
2022/12/18 07:09:06;;;;;;;27.73;25.03;;;-6.60;97.20;;;;;;1707379;28;20213;-71
2022/12/18 07:09:57;;;;;;;32.40;29.15;;;-6.50;97.20;;;;;;1706804;28;20211;-71
2022/12/18 07:10:49;;;;;;;30.80;27.80;;;-6.50;97.20;;;;;;1707371;29;20222;-71
2022/12/18 07:11:40;;;;;;;28.38;25.58;;;-6.60;97.20;;;;;;1707268;28;20223;-71
2022/12/18 07:12:31;;;;;;;28.90;26.00;;;-6.60;97.20;;;;;;1707511;29;20665;-71
2022/12/18 07:13:22;;;;;;;27.65;24.67;;;-6.60;97.20;;;;;;1707278;28;20217;-71
2022/12/18 07:14:14;;;;;;;29.13;26.10;;;-6.60;97.20;;;;;;1707459;28;20210;-71
2022/12/18 07:15:06;;;;;;;30.30;27.25;;;-6.60;97.20;;;;;;1707342;29;20225;-71
2022/12/18 07:16:05;;;;;;;29.52;26.55;;;-6.60;97.20;;;;;;1707356;29;20206;-71
2022/12/18 07:16:55;;;;;;;27.85;24.95;;;-6.60;97.20;;;;;;1707276;29;20616;-71
2022/12/18 07:17:48;;;;;;;29.90;26.77;;;-6.60;97.20;;;;;;1707299;29;20199;-71
2022/12/18 07:18:39;;;;;;;29.23;26.05;;;-6.60;97.20;;;;;;1706962;29;20257;-71
2022/12/18 07:19:31;;;;;;;29.90;26.80;;;-6.60;97.20;;;;;;1707437;29;20206;-71
2022/12/18 07:20:22;;;;;;;29.35;26.48;;;-6.50;97.20;;;;;;1706517;28;20211;-71
2022/12/18 07:21:17;;;;;;;30.40;27.30;;;-6.60;97.20;;;;;;1707380;29;20215;-71
2022/12/18 07:22:08;;;;;;;32.83;29.42;;;-6.50;97.20;;;;;;1707379;29;20203;-71
2022/12/18 07:22:59;;;;;;;31.70;28.40;;;-6.50;97.20;;;;;;1707395;29;20214;-71
2022/12/18 07:23:50;;;;;;;30.48;27.38;;;-6.50;97.20;;;;;;1707425;29;20206;-71
2022/12/18 07:24:42;;;;;;;33.20;29.80;;;-6.50;97.20;;;;;;1707050;29;20199;-71
2022/12/18 07:25:34;;;;;;;33.63;30.42;;;-6.40;97.20;;;;;;1707303;29;20810;-71
2022/12/18 07:26:26;;;;;;;37.42;33.67;;;-6.40;97.20;;;;;;1706986;29;20202;-71
2022/12/18 07:27:16;;;;;;;31.75;28.58;;;-6.30;97.20;;;;;;1707072;29;20207;-71
2022/12/18 07:28:08;;;;;;;32.53;28.93;;;-6.30;97.20;;;;;;1707244;29;20202;-70
2022/12/18 07:28:59;;;;;;;32.65;29.35;;;-6.30;97.20;;;;;;1707220;29;20442;-71
2022/12/18 07:29:51;;;;;;;31.63;28.33;;;-6.30;97.20;;;;;;1707441;29;20203;-71
2022/12/18 07:30:41;;;;;;;30.63;27.52;;;-6.20;97.20;;;;;;1706769;28;20222;-70
2022/12/18 07:31:33;;;;;;;34.10;29.00;;;-6.20;97.20;;;;;;1707348;29;20210;-71
2022/12/18 07:32:24;;;;;;;32.42;28.48;;;-6.20;97.20;;;;;;1707187;29;20291;-71
2022/12/18 07:33:17;;;;;;;30.63;27.13;;;-6.10;97.20;;;;;;1707310;29;20210;-71
2022/12/18 07:34:10;;;;;;;32.75;29.35;;;-6.10;97.20;;;;;;1707236;29;20210;-71
2022/12/18 07:35:01;;;;;;;33.13;28.75;;;-6.00;97.20;;;;;;1706593;28;20206;-70
2022/12/18 07:35:52;;;;;;;29.25;26.38;;;-6.00;97.20;;;;;;1700829;29;20207;-70
2022/12/18 07:36:44;;;;;;;29.97;26.83;;;-5.90;97.20;;;;;;1700499;29;20665;-70
2022/12/18 07:37:35;;;;;;;30.17;27.08;;;-5.90;97.20;;;;;;1705884;29;20225;-71
2022/12/18 07:38:26;;;;;;;31.30;28.10;;;-5.90;97.20;;;;;;1707215;29;20220;-71
2022/12/18 07:39:17;;;;;;;31.88;28.45;;;-5.90;97.20;;;;;;1707250;29;20630;-70
2022/12/18 07:40:10;;;;;;;34.53;30.93;;;-5.90;97.20;;;;;;1706762;29;20202;-71
2022/12/18 07:41:02;;;;;;;31.75;28.45;;;-5.80;97.20;;;;;;1707186;28;20210;-71
2022/12/18 07:42:59;;;;;;;41.85;32.53;;;-5.80;97.20;;;;;;1706363;28;20277;-71
2022/12/18 07:43:50;;;;;;;42.95;33.78;;;-5.70;97.20;;;;;;1707344;29;20232;-71
2022/12/18 07:44:42;;;;;;;37.33;32.80;;;-5.70;97.20;;;;;;1707184;29;20205;-71
2022/12/18 07:45:33;;;;;;;36.70;32.78;;;-5.70;97.20;;;;;;1707238;29;20297;-71
2022/12/18 07:46:24;;;;;;;39.00;34.03;;;-5.60;97.20;;;;;;1707258;29;20199;-70
2022/12/18 07:47:15;;;;;;;39.20;34.45;;;-5.60;97.20;;;;;;1707051;29;20215;-70
2022/12/18 07:48:07;;;;;;;39.53;35.30;;;-5.50;97.20;;;;;;1707156;28;20224;-70
2022/12/18 07:48:59;;;;;;;36.55;32.58;;;-5.50;97.20;;;;;;1707252;29;20199;-71
2022/12/18 07:49:50;;;;;;;39.65;34.17;;;-5.40;97.20;;;;;;1707200;29;20296;-71
2022/12/18 07:50:41;;;;;;;40.28;33.85;;;-5.40;97.20;;;;;;1706596;28;20242;-71
2022/12/18 07:51:33;;;;;;;40.30;33.53;;;-5.30;97.20;;;;;;1706891;28;20217;-71
2022/12/18 07:52:24;;;;;;;40.75;34.65;;;-5.30;97.20;;;;;;1706428;29;20225;-71
2022/12/18 07:53:16;;;;;;;45.00;37.40;;;-5.30;97.20;;;;;;1707078;29;20194;-71
2022/12/18 07:54:06;;;;;;;43.47;37.47;;;-5.20;97.20;;;;;;1707122;29;20211;-71
2022/12/18 07:54:58;;;;;;;40.80;36.27;;;-5.20;97.20;;;;;;1705288;29;20203;-71
2022/12/18 07:55:49;;;;;;;44.10;39.13;;;-5.10;97.20;;;;;;1707501;29;20287;-71
2022/12/18 07:56:40;;;;;;;46.47;41.50;;;-5.10;97.20;;;;;;1706857;28;20226;-71
2022/12/18 07:57:31;;;;;;;43.80;39.30;;;-5.10;97.20;;;;;;1707238;28;20209;-71
2022/12/18 07:58:23;;;;;;;52.27;46.60;;;-5.00;97.20;;;;;;1707062;29;20290;-71
2022/12/18 07:59:14;;;;;;;56.88;50.88;;;-5.00;97.20;;;;;;1707185;28;20226;-70
2022/12/18 08:00:06;;;;;;;52.97;47.35;;;-4.90;97.20;;;;;;1706581;29;20206;-71
2022/12/18 08:01:04;;;;;;;50.42;45.33;;;-4.90;97.20;;;;;;1707044;28;20232;-71
2022/12/18 08:01:55;;;;;;;45.63;41.03;;;-4.80;97.20;;;;;;1707262;28;20253;-70
2022/12/18 08:02:47;;;;;;;40.00;35.87;;;-4.80;97.20;;;;;;1707189;29;20207;-71
2022/12/18 08:03:39;;;;;;;37.38;33.55;;;-4.80;97.20;;;;;;1707157;29;20209;-71
2022/12/18 08:04:32;;;;;;;40.75;36.00;;;-4.70;97.20;;;;;;1707162;29;20198;-71
2022/12/18 08:05:23;;;;;;;39.13;34.92;;;-4.70;97.20;;;;;;1707028;29;20217;-71
2022/12/18 08:06:15;;;;;;;40.67;36.27;;;-4.60;97.20;;;;;;1707282;29;20208;-71
2022/12/18 08:07:05;;;;;;;37.08;33.08;;;-4.60;97.20;;;;;;1706866;28;20453;-71
2022/12/18 08:07:59;;;;;;;38.90;34.70;;;-4.60;97.20;;;;;;1706782;29;20208;-71
2022/12/18 08:08:51;;;;;;;35.58;31.40;;;-4.50;97.20;;;;;;1707097;29;20290;-71
2022/12/18 08:09:43;;;;;;;35.17;31.38;;;-4.50;97.20;;;;;;1707081;29;20206;-71
2022/12/18 08:10:33;;;;;;;38.92;33.55;;;-4.40;97.20;;;;;;1706637;29;20608;-71
2022/12/18 08:11:29;;;;;;;39.73;35.10;;;-4.40;97.20;;;;;;1706894;28;20549;-71
2022/12/18 08:12:20;;;;;;;41.45;35.15;;;-4.30;97.20;;;;;;1707061;29;20264;-71
2022/12/18 08:13:11;;;;;;;44.73;37.30;;;-4.30;97.20;;;;;;1707152;29;20202;-71
2022/12/18 08:14:02;;;;;;;49.58;39.05;;;-4.20;97.20;;;;;;1707009;29;20221;-71
2022/12/18 08:14:54;;;;;;;42.07;34.67;;;-4.20;97.20;;;;;;1707165;29;20212;-71
2022/12/18 08:15:45;;;;;;;38.33;33.70;;;-4.10;97.20;;;;;;1707025;28;20452;-71
2022/12/18 08:16:36;;;;;;;41.87;34.03;;;-4.10;97.20;;;;;;1707087;28;20213;-71
2022/12/18 08:17:27;;;;;;;38.22;30.77;;;-4.00;97.20;;;;;;1706962;29;20210;-71
2022/12/18 08:18:19;;;;;;;33.93;30.03;;;-3.90;97.20;;;;;;1707045;29;20240;-71
2022/12/18 08:19:10;;;;;;;33.40;28.75;;;-3.90;97.20;;;;;;1707005;29;20228;-71
2022/12/18 08:20:03;;;;;;;32.37;27.70;;;-3.80;97.20;;;;;;1706604;28;20226;-71
2022/12/18 08:20:54;;;;;;;29.70;26.58;;;-3.80;97.20;;;;;;1707105;29;20230;-71
2022/12/18 08:21:46;;;;;;;30.17;25.60;;;-3.60;97.20;;;;;;1706874;28;20576;-71
2022/12/18 08:22:37;;;;;;;28.42;25.52;;;-3.60;97.20;;;;;;1707015;29;20206;-71
2022/12/18 08:23:28;;;;;;;28.97;25.87;;;-3.50;97.20;;;;;;1707258;29;20209;-71
2022/12/18 08:24:19;;;;;;;30.42;26.88;;;-3.40;97.20;;;;;;1706879;28;20203;-71
2022/12/18 08:25:11;;;;;;;30.53;27.33;;;-3.30;97.20;;;;;;1707076;29;20190;-71
2022/12/18 08:26:02;;;;;;;32.97;29.67;;;-3.20;97.20;;;;;;1707008;29;20218;-71
2022/12/18 08:26:53;;;;;;;30.53;27.33;;;-3.10;97.20;;;;;;1706939;29;20202;-71
2022/12/18 08:27:44;;;;;;;33.85;30.45;;;-3.00;97.20;;;;;;1707085;29;20206;-71
2022/12/18 08:28:36;;;;;;;33.93;30.23;;;-2.80;97.20;;;;;;1707112;29;20213;-71
2022/12/18 08:29:26;;;;;;;35.88;32.08;;;-2.60;97.20;;;;;;1707084;29;20210;-71
2022/12/18 08:30:18;;;;;;;36.10;32.40;;;-2.20;97.20;;;;;;1706500;29;20213;-71
2022/12/18 08:31:10;;;;;;;36.30;32.65;;;-1.60;97.20;;;;;;1706952;29;20684;-71
2022/12/18 08:32:02;;;;;;;37.60;33.78;;;-0.70;97.20;;;;;;1706973;29;20210;-71
2022/12/18 08:32:52;;;;;;;37.40;33.50;;;0.30;97.20;;;;;;1707054;29;20202;-71
2022/12/18 08:33:44;;;;;;;38.53;34.57;;;1.40;97.20;;;;;;1707069;29;20206;-71
2022/12/18 08:34:35;;;;;;;37.53;33.65;;;2.40;97.20;;;;;;1707143;29;20219;-71
2022/12/18 08:35:28;;;;;;;34.53;31.00;;;3.40;97.20;;;;;;1707036;29;20216;-71
2022/12/18 08:36:19;;;;;;;34.13;30.67;;;4.40;97.20;;;;;;1707022;28;20359;-71
2022/12/18 08:37:11;;;;;;;33.92;30.52;;;5.40;97.20;;;;;;1706864;29;20199;-71
2022/12/18 08:38:02;;;;;;;32.75;29.45;;;6.20;97.20;;;;;;1706962;29;20210;-71
2022/12/18 08:38:54;;;;;;;31.37;28.00;;;7.00;97.20;;;;;;1707014;29;20199;-71
2022/12/18 08:39:44;;;;;;;32.58;28.92;;;7.70;97.20;;;;;;1706940;29;20214;-71
2022/12/18 08:40:36;;;;;;;33.37;28.90;;;8.30;97.20;;;;;;1706249;29;20240;-71
2022/12/18 08:41:27;;;;;;;33.25;28.45;;;8.90;97.20;;;;;;1706863;29;20219;-71
2022/12/18 08:44:41;;;;;;;33.25;28.48;;;10.70;97.20;;;;;;1707160;29;20270;-71
2022/12/18 08:45:31;;;;;;;31.80;28.40;;;11.20;96.50;;;;;;1707103;29;20211;-71
2022/12/18 08:46:26;;;;;;;28.80;25.57;;;11.50;95.30;;;;;;1707057;28;20218;-71
2022/12/18 08:47:16;;;;;;;30.80;26.90;;;11.90;94.50;;;;;;1707258;29;20222;-71
2022/12/18 08:48:08;;;;;;;30.77;26.67;;;12.00;93.30;;;;;;1708212;29;20239;-71
2022/12/18 08:48:59;;;;;;;32.30;27.23;;;12.00;92.50;;;;;;1708212;29;20206;-71
2022/12/18 08:49:50;;;;;;;35.77;26.60;;;12.00;92.00;;;;;;1708300;29;20253;-71
2022/12/18 08:50:43;;;;;;;31.15;26.52;;;11.80;91.70;;;;;;1707619;28;20598;-71
2022/12/18 08:51:35;;;;;;;30.70;26.95;;;11.40;91.90;;;;;;1708199;29;20285;-71
2022/12/18 08:52:26;;;;;;;29.92;26.70;;;10.90;92.10;;;;;;1708190;29;20214;-71
2022/12/18 08:53:18;;;;;;;34.37;28.97;;;10.50;92.60;;;;;;1708334;29;20241;-71
2022/12/18 08:54:11;;;;;;;30.25;26.90;;;10.10;93.20;;;;;;1708327;29;20206;-71
2022/12/18 08:55:03;;;;;;;31.23;27.92;;;9.80;93.50;;;;;;1706359;29;20221;-72
2022/12/18 08:55:57;;;;;;;32.45;27.27;;;9.40;94.20;;;;;;1708344;29;20719;-71
2022/12/18 08:56:48;;;;;;;28.30;25.27;;;9.10;94.80;;;;;;1707722;29;20602;-71
2022/12/18 08:57:39;;;;;;;32.87;27.60;;;8.60;95.30;;;;;;1708255;29;20576;-71
2022/12/18 08:58:30;;;;;;;31.23;27.15;;;8.30;96.20;;;;;;1708270;29;20207;-71
2022/12/18 08:59:23;;;;;;;33.83;27.57;;;8.00;97.10;;;;;;1708091;29;20230;-71
2022/12/18 09:00:14;;;;;;;29.15;25.70;;;7.90;97.20;;;;;;1707699;28;20454;-71
2022/12/18 09:01:08;;;;;;;32.08;26.60;;;7.90;97.20;;;;;;1708184;29;20239;-71
2022/12/18 09:01:59;;;;;;;32.13;27.52;;;8.10;97.20;;;;;;1708071;29;20206;-71
2022/12/18 09:02:51;;;;;;;28.60;24.23;;;8.60;97.20;;;;;;1708255;29;20206;-71
2022/12/18 09:03:41;;;;;;;32.50;26.25;;;9.10;97.20;;;;;;1708107;29;20214;-71
2022/12/18 09:04:33;;;;;;;33.03;27.97;;;9.90;97.20;;;;;;1708299;29;20203;-71
2022/12/18 09:05:24;;;;;;;33.17;28.25;;;10.70;97.10;;;;;;1708171;29;20702;-71
2022/12/18 09:06:18;;;;;;;31.10;27.13;;;11.60;95.80;;;;;;1708263;29;20582;-71
2022/12/18 09:07:09;;;;;;;32.92;28.08;;;12.40;94.60;;;;;;1707984;29;20199;-71
2022/12/18 09:08:00;;;;;;;30.83;26.87;;;13.20;93.20;;;;;;1708212;29;20216;-71
2022/12/18 09:08:51;;;;;;;29.27;23.88;;;13.90;92.00;;;;;;1708223;29;20209;-71
2022/12/18 09:09:43;;;;;;;29.57;24.07;;;14.60;90.80;;;;;;1708143;29;20683;-72
2022/12/18 09:10:40;;;;;;;26.65;22.10;;;15.20;89.60;;;;;;1707593;28;20222;-71
2022/12/18 09:11:33;;;;;;;27.15;23.25;;;15.70;88.60;;;;;;1708166;29;20197;-71
2022/12/18 09:12:24;;;;;;;28.13;21.30;;;16.20;87.60;;;;;;1708127;29;20693;-71
2022/12/18 09:13:17;;;;;;;26.25;20.70;;;16.60;86.40;;;;;;1707943;29;20289;-71
2022/12/18 09:14:09;;;;;;;26.70;21.60;;;16.90;85.90;;;;;;1708083;29;20198;-71
2022/12/18 09:15:01;;;;;;;34.45;26.30;;;17.10;85.00;;;;;;1708050;29;20203;-71
2022/12/18 09:15:54;;;;;;;31.75;26.50;;;17.50;84.60;;;;;;1708104;29;20230;-71
2022/12/18 09:16:45;;;;;;;36.47;27.48;;;17.90;84.00;;;;;;1707856;28;20210;-72
2022/12/18 09:17:36;;;;;;;29.95;23.58;;;18.20;83.20;;;;;;1708154;29;20218;-72
2022/12/18 09:18:28;;;;;;;28.10;22.53;;;18.40;82.30;;;;;;1708412;28;20281;-72
2022/12/18 09:19:19;;;;;;;29.30;24.60;;;18.50;81.70;;;;;;1708052;29;20238;-72
2022/12/18 09:20:10;;;;;;;34.00;27.15;;;18.70;81.40;;;;;;1707430;29;20202;-72
2022/12/18 09:21:09;;;;;;;36.10;27.57;;;18.70;81.00;;;;;;1707976;29;20208;-72
2022/12/18 09:22:02;;;;;;;33.17;25.98;;;18.70;80.90;;;;;;1708086;28;20450;-72
2022/12/18 09:22:53;;;;;;;32.63;26.55;;;18.60;80.70;;;;;;1708138;29;20693;-72
2022/12/18 09:23:49;;;;;;;30.33;23.60;;;18.50;80.70;;;;;;1707953;29;20770;-72
2022/12/18 09:24:40;;;;;;;30.08;23.27;;;18.30;80.60;;;;;;1708034;29;20454;-72
2022/12/18 09:25:32;;;;;;;27.70;23.47;;;18.00;80.80;;;;;;1708167;29;20206;-72
2022/12/18 09:26:25;;;;;;;30.23;25.40;;;17.80;81.40;;;;;;1708100;29;20207;-72
2022/12/18 09:27:16;;;;;;;26.63;21.25;;;17.90;81.90;;;;;;1707955;29;20212;-72
2022/12/18 09:28:12;;;;;;;30.77;24.70;;;18.10;81.80;;;;;;1708144;29;20692;-72
2022/12/18 09:29:04;;;;;;;28.27;23.00;;;18.50;81.60;;;;;;1708054;29;20234;-73
2022/12/18 09:29:55;;;;;;;26.98;23.58;;;19.10;81.10;;;;;;1707333;29;20577;-73
2022/12/18 09:30:49;;;;;;;25.23;20.87;;;19.60;80.10;;;;;;1707930;28;20586;-73
2022/12/18 09:31:39;;;;;;;31.17;25.77;;;19.90;79.30;;;;;;1708007;29;20210;-73
2022/12/18 09:32:31;;;;;;;30.83;27.50;;;20.10;78.50;;;;;;1707970;29;20253;-73
2022/12/18 09:33:22;;;;;;;46.10;40.85;;;20.30;78.10;;;;;;1707995;29;20748;-73
2022/12/18 09:34:14;;;;;;;26.90;22.03;;;20.70;77.90;;;;;;1708095;29;20653;-72
2022/12/18 09:35:05;;;;;;;30.90;25.40;;;20.80;77.30;;;;;;1707906;29;20207;-72
2022/12/18 09:35:57;;;;;;;30.52;25.45;;;21.10;76.80;;;;;;1708011;29;20206;-72
2022/12/18 09:36:48;;;;;;;28.55;23.90;;;21.20;76.40;;;;;;1707791;29;20668;-73
2022/12/18 09:37:42;;;;;;;28.27;22.70;;;21.50;76.00;;;;;;1707938;29;20211;-73
2022/12/18 09:38:33;;;;;;;23.58;20.60;;;21.90;75.90;;;;;;1707990;29;20206;-73
2022/12/18 09:39:25;;;;;;;28.70;25.63;;;22.10;75.00;;;;;;1707867;29;20202;-73
2022/12/18 09:40:19;;;;;;;25.63;22.65;;;22.40;74.70;;;;;;1707387;28;20207;-73
2022/12/18 09:41:28;;;;;;;24.90;21.40;;;22.70;74.20;;;;;;1707982;29;20202;-73
2022/12/18 09:42:22;;;;;;;26.52;22.55;;;22.90;73.10;;;;;;1708030;29;20211;-73
2022/12/18 09:43:17;;;;;;;28.83;24.05;;;23.20;73.00;;;;;;1708047;29;20202;-73
2022/12/18 09:44:16;;;;;;;28.15;24.00;;;23.50;72.30;;;;;;1707876;29;20198;-73
2022/12/18 09:45:14;;;;;;;31.00;26.98;;;23.70;71.70;;;;;;1707973;29;20195;-73
2022/12/18 09:46:08;;;;;;;32.08;27.52;;;24.00;71.20;;;;;;1707531;29;20206;-74
2022/12/18 09:47:15;;;;;;;29.35;25.52;;;24.40;71.20;;;;;;1707690;29;20199;-73
2022/12/18 09:48:15;;;;;;;30.83;26.10;;;24.80;70.20;;;;;;1701330;29;20286;-73
2022/12/18 09:49:14;;;;;;;31.50;27.95;;;25.10;69.50;;;;;;1701391;29;20191;-73
2022/12/18 09:50:19;;;;;;;29.58;26.25;;;25.60;69.30;;;;;;1700743;29;20212;-74
2022/12/18 09:51:16;;;;;;;30.70;27.50;;;26.10;68.70;;;;;;1701304;29;20211;-73
2022/12/18 09:52:14;;;;;;;31.30;27.30;;;26.40;67.60;;;;;;1701191;29;20250;-74
2022/12/18 09:53:12;;;;;;;32.30;28.80;;;26.60;67.10;;;;;;1701256;29;20200;-74
2022/12/18 09:54:07;;;;;;;36.67;29.67;;;26.80;66.70;;;;;;1701226;29;20211;-73
2022/12/18 09:55:03;;;;;;;30.55;26.05;;;27.00;66.00;;;;;;1701294;29;20204;-74
2022/12/18 09:55:55;;;;;;;30.13;26.50;;;27.20;65.60;;;;;;1701440;29;20573;-74
2022/12/18 09:56:48;;;;;;;28.50;25.50;;;27.40;65.20;;;;;;1701138;29;20647;-74
2022/12/18 09:57:48;;;;;;;29.42;26.35;;;27.50;65.00;;;;;;1701236;29;20218;-74
2022/12/18 09:58:45;;;;;;;30.60;27.30;;;27.70;64.80;;;;;;1701123;29;20206;-74
2022/12/18 09:59:39;;;;;;;31.58;27.88;;;27.70;64.30;;;;;;1701310;29;20294;-74
2022/12/18 10:00:30;;;;;;;30.02;26.45;;;27.80;63.90;;;;;;1700850;29;20780;-74
2022/12/18 10:01:23;;;;;;;29.80;26.60;;;27.80;63.60;;;;;;1701142;29;20694;-74
2022/12/18 10:02:16;;;;;;;28.42;25.40;;;27.90;63.10;;;;;;1707446;29;20194;-74
2022/12/18 10:03:12;;;;;;;32.13;27.90;;;28.00;62.90;;;;;;1707795;29;20253;-74
2022/12/18 10:04:02;;;;;;;30.48;27.00;;;28.10;62.80;;;;;;1707442;29;20198;-73
2022/12/18 10:05:05;;;;;;;31.57;27.80;;;28.00;62.50;;;;;;1708008;29;20198;-74
2022/12/18 10:06:04;;;;;;;33.20;28.05;;;27.90;62.40;;;;;;1705432;29;20218;-74
2022/12/18 10:07:04;;;;;;;28.50;25.45;;;28.10;62.70;;;;;;1707625;29;20265;-74
2022/12/18 10:08:01;;;;;;;29.58;26.48;;;28.20;62.70;;;;;;1707949;29;20210;-74
2022/12/18 10:08:59;;;;;;;26.42;23.58;;;28.30;62.20;;;;;;1707903;28;20281;-73
2022/12/18 10:10:00;;;;;;;26.40;23.20;;;28.30;62.00;;;;;;1707897;29;20194;-75
2022/12/18 10:10:54;;;;;;;26.30;23.50;;;28.30;62.30;;;;;;1707805;29;20233;-74
2022/12/18 10:11:53;;;;;;;26.63;23.70;;;28.50;62.30;;;;;;1707722;29;20210;-74
2022/12/18 10:12:55;;;;;;;25.30;22.60;;;28.60;62.10;;;;;;1707875;29;20187;-75
2022/12/18 10:13:51;;;;;;;25.52;22.83;;;28.80;61.80;;;;;;1707799;29;20192;-75
2022/12/18 10:14:51;;;;;;;24.20;21.35;;;28.80;61.40;;;;;;1707798;29;20723;-75
2022/12/18 10:15:53;;;;;;;26.10;22.48;;;28.80;61.40;;;;;;1707790;29;20221;-75
2022/12/18 10:16:58;;;;;;;23.88;20.85;;;28.80;61.40;;;;;;1707725;29;20242;-74
2022/12/18 10:17:55;;;;;;;24.90;22.20;;;28.90;61.20;;;;;;1707563;29;20217;-74
2022/12/18 10:19:02;;;;;;;25.67;22.75;;;29.00;61.30;;;;;;1707883;29;20249;-74
2022/12/18 10:19:58;;;;;;;27.33;23.02;;;29.10;61.00;;;;;;1707211;29;20792;-75
2022/12/18 10:20:52;;;;;;;28.33;24.70;;;29.40;61.00;;;;;;1707765;28;20223;-74
2022/12/18 10:21:52;;;;;;;27.52;22.92;;;29.40;61.00;;;;;;1707586;29;20206;-75
2022/12/18 10:22:58;;;;;;;24.83;22.15;;;29.60;60.80;;;;;;1707824;29;20594;-74
2022/12/18 10:23:59;;;;;;;26.00;23.27;;;29.60;60.50;;;;;;1707841;29;20218;-75
2022/12/18 10:24:56;;;;;;;25.75;22.73;;;29.50;60.10;;;;;;1707769;29;20330;-74
2022/12/18 10:25:53;;;;;;;25.83;21.88;;;29.50;60.30;;;;;;1707862;29;20198;-74
2022/12/18 10:26:45;;;;;;;26.98;23.95;;;29.60;60.50;;;;;;1707509;29;20661;-75
2022/12/18 10:27:36;;;;;;;27.15;24.25;;;29.60;60.40;;;;;;1707665;29;20210;-75
2022/12/18 10:28:30;;;;;;;24.77;22.10;;;29.80;60.40;;;;;;1707807;29;20209;-74
2022/12/18 10:29:21;;;;;;;26.55;23.73;;;29.80;59.50;;;;;;1707702;29;20210;-74
2022/12/18 10:30:15;;;;;;;26.17;23.47;;;30.00;59.90;;;;;;1707084;28;20665;-74
2022/12/18 10:31:06;;;;;;;24.70;21.98;;;30.10;59.70;;;;;;1707655;29;20213;-74